sensor_id;sensor_type;location;lat;lon;timestamp;noise_LAeq;noise_LA_min;noise_LA_max;noise_LA01;noise_LA95
81493;Laerm;70900;51.798;10.954;2023-07-31T00:01:01;30.71;25.91;41.14;;
81493;Laerm;70900;51.798;10.954;2023-07-31T00:03:26;25.69;23.35;31.15;;
81493;Laerm;70900;51.798;10.954;2023-07-31T00:05:52;29.33;23.64;41.58;;
81493;Laerm;70900;51.798;10.954;2023-07-31T00:08:17;46.91;23.49;62.78;;
81493;Laerm;70900;51.798;10.954;2023-07-31T00:10:42;25.50;23.33;39.26;;
81493;Laerm;70900;51.798;10.954;2023-07-31T00:13:08;39.09;23.74;59.65;;
81493;Laerm;70900;51.798;10.954;2023-07-31T00:15:33;24.96;23.16;33.58;;
81493;Laerm;70900;51.798;10.954;2023-07-31T00:17:58;25.48;23.47;42.46;;
81493;Laerm;70900;51.798;10.954;2023-07-31T00:20:24;26.32;24.80;34.57;;
81493;Laerm;70900;51.798;10.954;2023-07-31T00:22:49;25.35;23.11;38.36;;
81493;Laerm;70900;51.798;10.954;2023-07-31T00:25:15;28.89;23.87;46.97;;
81493;Laerm;70900;51.798;10.954;2023-07-31T00:27:40;27.66;23.82;35.48;;
81493;Laerm;70900;51.798;10.954;2023-07-31T00:30:09;26.49;23.65;35.17;;
81493;Laerm;70900;51.798;10.954;2023-07-31T00:32:35;26.76;24.63;37.54;;
81493;Laerm;70900;51.798;10.954;2023-07-31T00:35:00;26.16;24.56;28.64;;
81493;Laerm;70900;51.798;10.954;2023-07-31T00:37:25;44.63;24.82;55.24;;
81493;Laerm;70900;51.798;10.954;2023-07-31T00:39:51;41.00;31.18;48.94;;
81493;Laerm;70900;51.798;10.954;2023-07-31T00:42:16;44.75;30.57;55.57;;
81493;Laerm;70900;51.798;10.954;2023-07-31T00:44:41;39.47;31.43;50.38;;
81493;Laerm;70900;51.798;10.954;2023-07-31T00:47:07;37.39;32.22;44.15;;
81493;Laerm;70900;51.798;10.954;2023-07-31T00:49:32;34.61;29.90;43.37;;
81493;Laerm;70900;51.798;10.954;2023-07-31T00:51:58;49.68;31.12;66.79;;
81493;Laerm;70900;51.798;10.954;2023-07-31T00:54:24;40.02;33.72;46.30;;
81493;Laerm;70900;51.798;10.954;2023-07-31T00:56:49;40.82;35.40;46.33;;
81493;Laerm;70900;51.798;10.954;2023-07-31T00:59:16;40.79;34.91;46.07;;
81493;Laerm;70900;51.798;10.954;2023-07-31T01:01:43;47.67;37.87;56.51;;
81493;Laerm;70900;51.798;10.954;2023-07-31T01:04:09;46.07;38.43;52.27;;
81493;Laerm;70900;51.798;10.954;2023-07-31T01:06:37;45.13;39.32;51.89;;
81493;Laerm;70900;51.798;10.954;2023-07-31T01:09:11;45.62;40.46;51.34;;
81493;Laerm;70900;51.798;10.954;2023-07-31T01:11:53;49.70;41.45;57.07;;
81493;Laerm;70900;51.798;10.954;2023-07-31T01:14:21;48.27;39.19;59.76;;
81493;Laerm;70900;51.798;10.954;2023-07-31T01:16:47;48.38;40.64;56.08;;
81493;Laerm;70900;51.798;10.954;2023-07-31T01:19:12;49.74;40.84;61.54;;
81493;Laerm;70900;51.798;10.954;2023-07-31T01:24:08;49.90;41.85;55.66;;
81493;Laerm;70900;51.798;10.954;2023-07-31T01:26:41;49.77;42.52;55.27;;
81493;Laerm;70900;51.798;10.954;2023-07-31T01:29:20;46.23;38.40;54.93;;
81493;Laerm;70900;51.798;10.954;2023-07-31T01:31:48;44.54;38.13;50.23;;
81493;Laerm;70900;51.798;10.954;2023-07-31T01:34:15;41.43;35.79;48.69;;
81493;Laerm;70900;51.798;10.954;2023-07-31T01:36:42;41.56;35.34;47.47;;
81493;Laerm;70900;51.798;10.954;2023-07-31T01:39:08;44.25;34.54;52.90;;
81493;Laerm;70900;51.798;10.954;2023-07-31T01:41:33;36.61;31.65;45.03;;
81493;Laerm;70900;51.798;10.954;2023-07-31T01:43:58;41.08;34.69;48.67;;
81493;Laerm;70900;51.798;10.954;2023-07-31T01:46:24;43.37;36.72;49.07;;
81493;Laerm;70900;51.798;10.954;2023-07-31T01:48:49;44.05;34.10;58.48;;
81493;Laerm;70900;51.798;10.954;2023-07-31T01:51:14;39.66;34.32;46.73;;
81493;Laerm;70900;51.798;10.954;2023-07-31T01:53:40;51.39;30.93;68.69;;
81493;Laerm;70900;51.798;10.954;2023-07-31T01:56:05;39.80;31.26;49.42;;
81493;Laerm;70900;51.798;10.954;2023-07-31T01:58:30;35.77;32.10;41.94;;
81493;Laerm;70900;51.798;10.954;2023-07-31T02:00:56;50.72;31.32;67.13;;
81493;Laerm;70900;51.798;10.954;2023-07-31T02:03:21;39.87;33.33;45.65;;
81493;Laerm;70900;51.798;10.954;2023-07-31T02:05:47;39.64;35.52;45.98;;
81493;Laerm;70900;51.798;10.954;2023-07-31T02:08:13;46.61;31.61;61.07;;
81493;Laerm;70900;51.798;10.954;2023-07-31T02:10:39;35.23;32.34;40.74;;
81493;Laerm;70900;51.798;10.954;2023-07-31T02:13:04;41.52;33.82;55.27;;
81493;Laerm;70900;51.798;10.954;2023-07-31T02:15:30;39.67;34.64;46.74;;
81493;Laerm;70900;51.798;10.954;2023-07-31T02:17:55;40.06;32.51;45.76;;
81493;Laerm;70900;51.798;10.954;2023-07-31T02:20:20;35.77;31.72;41.15;;
81493;Laerm;70900;51.798;10.954;2023-07-31T02:22:46;39.66;29.80;51.04;;
81493;Laerm;70900;51.798;10.954;2023-07-31T02:25:11;38.00;32.13;55.67;;
81493;Laerm;70900;51.798;10.954;2023-07-31T02:27:36;38.23;31.80;44.81;;
81493;Laerm;70900;51.798;10.954;2023-07-31T02:30:02;36.70;31.83;42.53;;
81493;Laerm;70900;51.798;10.954;2023-07-31T02:32:27;39.94;31.90;48.46;;
81493;Laerm;70900;51.798;10.954;2023-07-31T02:34:53;40.25;33.00;45.79;;
81493;Laerm;70900;51.798;10.954;2023-07-31T02:37:18;37.40;33.54;43.46;;
81493;Laerm;70900;51.798;10.954;2023-07-31T02:39:43;40.76;33.84;49.78;;
81493;Laerm;70900;51.798;10.954;2023-07-31T02:42:09;42.68;36.22;51.21;;
81493;Laerm;70900;51.798;10.954;2023-07-31T02:44:34;50.88;35.43;68.52;;
81493;Laerm;70900;51.798;10.954;2023-07-31T02:46:59;39.72;34.45;46.02;;
81493;Laerm;70900;51.798;10.954;2023-07-31T02:49:25;44.08;35.20;53.59;;
81493;Laerm;70900;51.798;10.954;2023-07-31T02:51:50;42.76;36.69;50.19;;
81493;Laerm;70900;51.798;10.954;2023-07-31T02:54:15;41.62;34.61;49.53;;
81493;Laerm;70900;51.798;10.954;2023-07-31T02:56:41;38.72;33.31;45.65;;
81493;Laerm;70900;51.798;10.954;2023-07-31T02:59:06;45.38;34.19;61.81;;
81493;Laerm;70900;51.798;10.954;2023-07-31T03:01:31;37.95;34.32;43.63;;
81493;Laerm;70900;51.798;10.954;2023-07-31T03:03:57;51.29;34.31;67.30;;
81493;Laerm;70900;51.798;10.954;2023-07-31T03:06:22;43.98;37.43;50.66;;
81493;Laerm;70900;51.798;10.954;2023-07-31T03:08:47;44.81;37.00;51.90;;
81493;Laerm;70900;51.798;10.954;2023-07-31T03:11:13;42.48;35.69;48.96;;
81493;Laerm;70900;51.798;10.954;2023-07-31T03:13:38;42.13;37.66;46.95;;
81493;Laerm;70900;51.798;10.954;2023-07-31T03:16:03;53.42;36.75;70.15;;
81493;Laerm;70900;51.798;10.954;2023-07-31T03:18:29;52.63;37.40;67.66;;
81493;Laerm;70900;51.798;10.954;2023-07-31T03:20:54;53.66;37.83;68.56;;
81493;Laerm;70900;51.798;10.954;2023-07-31T03:23:19;44.86;38.27;53.68;;
81493;Laerm;70900;51.798;10.954;2023-07-31T03:25:57;46.45;37.67;60.06;;
81493;Laerm;70900;51.798;10.954;2023-07-31T03:28:23;43.36;36.43;52.65;;
81493;Laerm;70900;51.798;10.954;2023-07-31T03:30:48;52.09;37.66;67.94;;
81493;Laerm;70900;51.798;10.954;2023-07-31T03:33:14;43.83;36.50;54.37;;
81493;Laerm;70900;51.798;10.954;2023-07-31T03:35:39;43.20;35.81;54.75;;
81493;Laerm;70900;51.798;10.954;2023-07-31T03:38:04;46.69;35.95;60.67;;
81493;Laerm;70900;51.798;10.954;2023-07-31T03:40:30;42.83;37.14;51.71;;
81493;Laerm;70900;51.798;10.954;2023-07-31T03:42:55;49.06;37.39;64.97;;
81493;Laerm;70900;51.798;10.954;2023-07-31T03:45:21;52.12;36.02;68.75;;
81493;Laerm;70900;51.798;10.954;2023-07-31T03:47:46;39.10;35.06;45.23;;
81493;Laerm;70900;51.798;10.954;2023-07-31T03:50:11;51.50;33.85;65.31;;
81493;Laerm;70900;51.798;10.954;2023-07-31T03:52:37;40.00;34.46;52.12;;
81493;Laerm;70900;51.798;10.954;2023-07-31T03:55:02;54.81;34.57;72.80;;
81493;Laerm;70900;51.798;10.954;2023-07-31T03:57:27;49.28;36.09;64.83;;
81493;Laerm;70900;51.798;10.954;2023-07-31T03:59:53;53.21;33.47;69.38;;
81493;Laerm;70900;51.798;10.954;2023-07-31T04:02:18;52.99;35.84;70.05;;
81493;Laerm;70900;51.798;10.954;2023-07-31T04:04:44;53.02;36.89;66.09;;
81493;Laerm;70900;51.798;10.954;2023-07-31T04:07:09;48.47;34.99;63.35;;
81493;Laerm;70900;51.798;10.954;2023-07-31T04:09:34;39.25;35.56;44.81;;
81493;Laerm;70900;51.798;10.954;2023-07-31T04:12:00;51.71;36.56;65.47;;
81493;Laerm;70900;51.798;10.954;2023-07-31T04:14:25;48.16;35.55;63.61;;
81493;Laerm;70900;51.798;10.954;2023-07-31T04:16:51;55.83;35.03;68.18;;
81493;Laerm;70900;51.798;10.954;2023-07-31T04:19:17;52.90;39.17;71.92;;
81493;Laerm;70900;51.798;10.954;2023-07-31T04:21:42;54.02;39.27;71.07;;
81493;Laerm;70900;51.798;10.954;2023-07-31T04:24:08;43.00;38.27;50.73;;
81493;Laerm;70900;51.798;10.954;2023-07-31T04:26:33;54.06;37.11;67.36;;
81493;Laerm;70900;51.798;10.954;2023-07-31T04:28:58;55.29;37.26;69.42;;
81493;Laerm;70900;51.798;10.954;2023-07-31T04:31:23;52.46;37.41;67.63;;
81493;Laerm;70900;51.798;10.954;2023-07-31T04:33:49;57.88;36.27;75.39;;
81493;Laerm;70900;51.798;10.954;2023-07-31T04:36:14;62.24;37.40;82.01;;
81493;Laerm;70900;51.798;10.954;2023-07-31T04:38:39;56.04;37.71;72.28;;
81493;Laerm;70900;51.798;10.954;2023-07-31T04:41:06;55.19;38.94;66.18;;
81493;Laerm;70900;51.798;10.954;2023-07-31T04:43:31;41.96;37.41;55.71;;
81493;Laerm;70900;51.798;10.954;2023-07-31T04:45:57;53.28;38.67;66.38;;
81493;Laerm;70900;51.798;10.954;2023-07-31T04:48:23;41.87;37.23;54.38;;
81493;Laerm;70900;51.798;10.954;2023-07-31T04:50:48;52.70;39.09;65.99;;
81493;Laerm;70900;51.798;10.954;2023-07-31T04:53:14;51.40;37.12;68.35;;
81493;Laerm;70900;51.798;10.954;2023-07-31T04:55:39;59.12;39.66;72.68;;
81493;Laerm;70900;51.798;10.954;2023-07-31T04:58:04;49.77;37.49;66.13;;
81493;Laerm;70900;51.798;10.954;2023-07-31T05:00:30;55.92;40.74;70.42;;
81493;Laerm;70900;51.798;10.954;2023-07-31T05:02:56;51.10;42.05;63.81;;
81493;Laerm;70900;51.798;10.954;2023-07-31T05:05:21;56.44;41.25;69.99;;
81493;Laerm;70900;51.798;10.954;2023-07-31T05:07:47;57.85;40.66;70.73;;
81493;Laerm;70900;51.798;10.954;2023-07-31T05:10:12;53.54;39.24;69.72;;
81493;Laerm;70900;51.798;10.954;2023-07-31T05:12:37;56.03;39.98;67.76;;
81493;Laerm;70900;51.798;10.954;2023-07-31T05:15:03;48.61;38.02;63.03;;
81493;Laerm;70900;51.798;10.954;2023-07-31T05:17:28;50.28;38.19;64.80;;
81493;Laerm;70900;51.798;10.954;2023-07-31T05:19:54;51.79;37.85;68.67;;
81493;Laerm;70900;51.798;10.954;2023-07-31T05:22:19;49.07;37.19;65.11;;
81493;Laerm;70900;51.798;10.954;2023-07-31T05:24:44;61.59;39.51;78.50;;
81493;Laerm;70900;51.798;10.954;2023-07-31T05:27:10;58.63;38.84;69.66;;
81493;Laerm;70900;51.798;10.954;2023-07-31T05:29:35;59.40;36.65;70.54;;
81493;Laerm;70900;51.798;10.954;2023-07-31T05:32:01;57.62;35.63;72.63;;
81493;Laerm;70900;51.798;10.954;2023-07-31T05:34:26;57.33;36.00;74.37;;
81493;Laerm;70900;51.798;10.954;2023-07-31T05:36:52;56.15;35.98;70.05;;
81493;Laerm;70900;51.798;10.954;2023-07-31T05:39:17;51.51;36.59;69.64;;
81493;Laerm;70900;51.798;10.954;2023-07-31T05:41:44;53.31;35.61;66.54;;
81493;Laerm;70900;51.798;10.954;2023-07-31T05:44:10;55.07;35.47;68.76;;
81493;Laerm;70900;51.798;10.954;2023-07-31T05:46:35;52.03;36.11;68.00;;
81493;Laerm;70900;51.798;10.954;2023-07-31T05:49:00;52.64;35.99;66.67;;
81493;Laerm;70900;51.798;10.954;2023-07-31T05:51:26;57.59;36.37;70.06;;
81493;Laerm;70900;51.798;10.954;2023-07-31T05:53:52;61.63;36.25;77.02;;
81493;Laerm;70900;51.798;10.954;2023-07-31T05:56:17;56.96;36.22;70.30;;
81493;Laerm;70900;51.798;10.954;2023-07-31T05:58:43;46.00;35.86;60.10;;
81493;Laerm;70900;51.798;10.954;2023-07-31T06:01:08;53.29;37.03;65.70;;
81493;Laerm;70900;51.798;10.954;2023-07-31T06:03:33;56.84;38.06;69.78;;
81493;Laerm;70900;51.798;10.954;2023-07-31T06:05:59;47.49;37.01;61.43;;
81493;Laerm;70900;51.798;10.954;2023-07-31T06:08:24;57.23;36.33;72.89;;
81493;Laerm;70900;51.798;10.954;2023-07-31T06:10:50;58.34;36.02;74.06;;
81493;Laerm;70900;51.798;10.954;2023-07-31T06:13:15;43.62;34.76;59.50;;
81493;Laerm;70900;51.798;10.954;2023-07-31T06:15:41;53.87;35.01;66.14;;
81493;Laerm;70900;51.798;10.954;2023-07-31T06:18:06;51.86;35.90;67.81;;
81493;Laerm;70900;51.798;10.954;2023-07-31T06:20:33;50.32;35.13;64.48;;
81493;Laerm;70900;51.798;10.954;2023-07-31T06:22:58;60.75;37.95;78.07;;
81493;Laerm;70900;51.798;10.954;2023-07-31T06:25:24;54.60;36.13;67.33;;
81493;Laerm;70900;51.798;10.954;2023-07-31T06:27:49;49.69;35.12;67.89;;
81493;Laerm;70900;51.798;10.954;2023-07-31T06:30:14;54.53;37.59;66.34;;
81493;Laerm;70900;51.798;10.954;2023-07-31T06:32:40;52.43;35.11;68.32;;
81493;Laerm;70900;51.798;10.954;2023-07-31T06:35:06;53.15;35.59;69.53;;
81493;Laerm;70900;51.798;10.954;2023-07-31T06:37:31;53.30;34.82;66.50;;
81493;Laerm;70900;51.798;10.954;2023-07-31T06:39:56;54.14;37.70;67.51;;
81493;Laerm;70900;51.798;10.954;2023-07-31T06:42:22;55.38;41.26;67.72;;
81493;Laerm;70900;51.798;10.954;2023-07-31T06:44:47;51.00;38.95;65.90;;
81493;Laerm;70900;51.798;10.954;2023-07-31T06:47:12;50.47;37.93;63.89;;
81493;Laerm;70900;51.798;10.954;2023-07-31T06:49:38;58.96;37.16;69.04;;
81493;Laerm;70900;51.798;10.954;2023-07-31T06:52:03;60.70;38.92;76.68;;
81493;Laerm;70900;51.798;10.954;2023-07-31T06:54:29;58.48;40.29;69.79;;
81493;Laerm;70900;51.798;10.954;2023-07-31T06:56:54;61.74;38.38;77.62;;
81493;Laerm;70900;51.798;10.954;2023-07-31T06:59:19;56.50;36.80;71.79;;
81493;Laerm;70900;51.798;10.954;2023-07-31T07:01:45;55.95;36.41;70.91;;
81493;Laerm;70900;51.798;10.954;2023-07-31T07:04:10;44.90;37.02;62.34;;
81493;Laerm;70900;51.798;10.954;2023-07-31T07:06:36;54.99;37.14;67.94;;
81493;Laerm;70900;51.798;10.954;2023-07-31T07:09:01;39.67;35.43;46.56;;
81493;Laerm;70900;51.798;10.954;2023-07-31T07:11:27;54.57;38.40;68.23;;
81493;Laerm;70900;51.798;10.954;2023-07-31T07:13:52;59.51;35.97;76.36;;
81493;Laerm;70900;51.798;10.954;2023-07-31T07:16:17;54.93;38.73;66.15;;
81493;Laerm;70900;51.798;10.954;2023-07-31T07:18:43;56.57;39.13;69.09;;
81493;Laerm;70900;51.798;10.954;2023-07-31T07:21:08;51.59;39.15;64.41;;
81493;Laerm;70900;51.798;10.954;2023-07-31T07:23:33;43.25;37.88;53.83;;
81493;Laerm;70900;51.798;10.954;2023-07-31T07:25:59;58.01;38.37;72.03;;
81493;Laerm;70900;51.798;10.954;2023-07-31T07:28:24;54.68;38.35;67.77;;
81493;Laerm;70900;51.798;10.954;2023-07-31T07:30:52;55.54;39.76;66.70;;
81493;Laerm;70900;51.798;10.954;2023-07-31T07:33:21;55.93;39.36;69.10;;
81493;Laerm;70900;51.798;10.954;2023-07-31T07:35:46;56.82;39.84;69.46;;
81493;Laerm;70900;51.798;10.954;2023-07-31T07:38:13;54.18;42.94;64.58;;
81493;Laerm;70900;51.798;10.954;2023-07-31T07:40:39;49.66;39.34;63.93;;
81493;Laerm;70900;51.798;10.954;2023-07-31T07:43:04;55.36;39.33;69.27;;
81493;Laerm;70900;51.798;10.954;2023-07-31T07:45:30;52.01;38.26;65.84;;
81493;Laerm;70900;51.798;10.954;2023-07-31T07:47:55;55.77;40.43;67.19;;
81493;Laerm;70900;51.798;10.954;2023-07-31T07:50:20;57.40;38.36;71.23;;
81493;Laerm;70900;51.798;10.954;2023-07-31T07:52:46;50.27;36.47;66.41;;
81493;Laerm;70900;51.798;10.954;2023-07-31T07:55:11;55.96;36.08;67.58;;
81493;Laerm;70900;51.798;10.954;2023-07-31T07:57:37;56.45;37.21;69.05;;
81493;Laerm;70900;51.798;10.954;2023-07-31T08:00:02;54.01;38.65;66.98;;
81493;Laerm;70900;51.798;10.954;2023-07-31T08:02:27;51.86;36.54;68.60;;
81493;Laerm;70900;51.798;10.954;2023-07-31T08:04:53;57.41;38.65;70.25;;
81493;Laerm;70900;51.798;10.954;2023-07-31T08:07:18;48.11;39.24;56.44;;
81493;Laerm;70900;51.798;10.954;2023-07-31T08:09:43;57.00;38.76;70.30;;
81493;Laerm;70900;51.798;10.954;2023-07-31T08:12:09;58.28;42.63;74.09;;
81493;Laerm;70900;51.798;10.954;2023-07-31T08:14:34;52.69;43.63;63.61;;
81493;Laerm;70900;51.798;10.954;2023-07-31T08:17:01;56.16;44.70;67.67;;
81493;Laerm;70900;51.798;10.954;2023-07-31T08:19:26;56.91;42.05;70.36;;
81493;Laerm;70900;51.798;10.954;2023-07-31T08:21:52;56.01;45.35;67.25;;
81493;Laerm;70900;51.798;10.954;2023-07-31T08:24:17;56.85;44.17;68.56;;
81493;Laerm;70900;51.798;10.954;2023-07-31T08:26:42;62.57;44.38;78.34;;
81493;Laerm;70900;51.798;10.954;2023-07-31T08:29:08;50.94;43.46;60.96;;
81493;Laerm;70900;51.798;10.954;2023-07-31T08:31:33;56.89;45.83;70.33;;
81493;Laerm;70900;51.798;10.954;2023-07-31T08:33:59;59.84;45.25;73.32;;
81493;Laerm;70900;51.798;10.954;2023-07-31T08:36:25;58.52;46.62;70.32;;
81493;Laerm;70900;51.798;10.954;2023-07-31T08:38:50;58.44;47.21;67.31;;
81493;Laerm;70900;51.798;10.954;2023-07-31T08:41:15;56.47;41.77;68.16;;
81493;Laerm;70900;51.798;10.954;2023-07-31T08:43:42;55.22;41.51;66.19;;
81493;Laerm;70900;51.798;10.954;2023-07-31T08:46:09;54.94;44.13;66.55;;
81493;Laerm;70900;51.798;10.954;2023-07-31T08:48:34;57.81;44.06;73.94;;
81493;Laerm;70900;51.798;10.954;2023-07-31T08:51:00;56.62;43.69;68.53;;
81493;Laerm;70900;51.798;10.954;2023-07-31T08:53:26;51.85;42.63;64.71;;
81493;Laerm;70900;51.798;10.954;2023-07-31T08:55:52;57.71;45.35;69.83;;
81493;Laerm;70900;51.798;10.954;2023-07-31T08:58:17;58.05;47.83;68.11;;
81493;Laerm;70900;51.798;10.954;2023-07-31T09:00:43;56.42;48.82;66.52;;
81493;Laerm;70900;51.798;10.954;2023-07-31T09:03:14;56.37;45.54;67.62;;
81493;Laerm;70900;51.798;10.954;2023-07-31T09:05:42;54.55;45.76;64.78;;
81493;Laerm;70900;51.798;10.954;2023-07-31T09:08:09;57.38;46.49;67.40;;
81493;Laerm;70900;51.798;10.954;2023-07-31T09:10:39;54.12;40.98;66.81;;
81493;Laerm;70900;51.798;10.954;2023-07-31T09:13:05;53.88;45.87;64.05;;
81493;Laerm;70900;51.798;10.954;2023-07-31T09:15:31;59.80;45.80;73.22;;
81493;Laerm;70900;51.798;10.954;2023-07-31T09:17:59;58.57;48.76;71.83;;
81493;Laerm;70900;51.798;10.954;2023-07-31T09:20:26;59.99;48.90;68.96;;
81493;Laerm;70900;51.798;10.954;2023-07-31T09:22:51;58.62;45.72;70.29;;
81493;Laerm;70900;51.798;10.954;2023-07-31T09:25:21;59.48;49.07;72.64;;
81493;Laerm;70900;51.798;10.954;2023-07-31T09:30:12;58.33;45.61;69.69;;
81493;Laerm;70900;51.798;10.954;2023-07-31T09:32:37;51.06;39.48;62.65;;
81493;Laerm;70900;51.798;10.954;2023-07-31T09:35:48;57.76;39.11;72.52;;
81493;Laerm;70900;51.798;10.954;2023-07-31T09:37:52;57.59;46.63;72.35;;
81493;Laerm;70900;51.798;10.954;2023-07-31T09:40:29;58.86;50.17;68.04;;
81493;Laerm;70900;51.798;10.954;2023-07-31T09:42:56;59.20;49.05;70.31;;
81493;Laerm;70900;51.798;10.954;2023-07-31T09:45:22;58.28;49.62;72.72;;
81493;Laerm;70900;51.798;10.954;2023-07-31T09:47:48;56.34;47.27;66.71;;
81493;Laerm;70900;51.798;10.954;2023-07-31T09:50:14;60.68;44.98;71.37;;
81493;Laerm;70900;51.798;10.954;2023-07-31T09:52:39;58.42;51.13;65.83;;
81493;Laerm;70900;51.798;10.954;2023-07-31T09:55:05;58.81;53.21;67.38;;
81493;Laerm;70900;51.798;10.954;2023-07-31T09:57:30;58.41;51.75;67.70;;
81493;Laerm;70900;51.798;10.954;2023-07-31T09:59:56;59.61;54.27;68.65;;
81493;Laerm;70900;51.798;10.954;2023-07-31T10:02:23;60.82;52.53;70.87;;
81493;Laerm;70900;51.798;10.954;2023-07-31T10:04:49;61.71;50.26;73.90;;
81493;Laerm;70900;51.798;10.954;2023-07-31T10:07:15;62.09;44.32;77.13;;
81493;Laerm;70900;51.798;10.954;2023-07-31T10:09:42;60.47;51.83;71.22;;
81493;Laerm;70900;51.798;10.954;2023-07-31T10:12:08;60.31;51.74;66.95;;
81493;Laerm;70900;51.798;10.954;2023-07-31T10:14:36;62.68;56.19;69.83;;
81493;Laerm;70900;51.798;10.954;2023-07-31T10:17:03;63.78;56.84;70.68;;
81493;Laerm;70900;51.798;10.954;2023-07-31T10:19:29;59.87;47.01;68.97;;
81493;Laerm;70900;51.798;10.954;2023-07-31T10:21:55;58.58;37.72;73.21;;
81493;Laerm;70900;51.798;10.954;2023-07-31T10:24:25;56.45;36.63;69.63;;
81493;Laerm;70900;51.798;10.954;2023-07-31T10:26:51;53.64;38.32;68.38;;
81493;Laerm;70900;51.798;10.954;2023-07-31T10:29:20;56.71;39.76;69.37;;
81493;Laerm;70900;51.798;10.954;2023-07-31T10:31:47;55.54;39.36;67.76;;
81493;Laerm;70900;51.798;10.954;2023-07-31T10:34:14;55.74;36.17;67.91;;
81493;Laerm;70900;51.798;10.954;2023-07-31T10:36:40;59.56;38.18;74.25;;
81493;Laerm;70900;51.798;10.954;2023-07-31T10:39:05;58.51;36.63;73.31;;
81493;Laerm;70900;51.798;10.954;2023-07-31T10:41:51;59.49;36.47;72.26;;
81493;Laerm;70900;51.798;10.954;2023-07-31T10:44:16;56.15;37.90;69.74;;
81493;Laerm;70900;51.798;10.954;2023-07-31T10:46:42;56.61;38.05;69.64;;
81493;Laerm;70900;51.798;10.954;2023-07-31T10:49:10;53.38;37.60;67.71;;
81493;Laerm;70900;51.798;10.954;2023-07-31T10:51:46;60.65;37.76;76.60;;
81493;Laerm;70900;51.798;10.954;2023-07-31T10:54:15;56.70;38.15;65.39;;
81493;Laerm;70900;51.798;10.954;2023-07-31T10:56:44;63.05;43.58;77.88;;
81493;Laerm;70900;51.798;10.954;2023-07-31T10:59:10;58.49;41.53;70.82;;
81493;Laerm;70900;51.798;10.954;2023-07-31T11:04:21;58.84;44.23;68.03;;
81493;Laerm;70900;51.798;10.954;2023-07-31T11:07:00;55.32;43.38;64.95;;
81493;Laerm;70900;51.798;10.954;2023-07-31T11:09:30;58.39;45.34;71.52;;
81493;Laerm;70900;51.798;10.954;2023-07-31T11:11:56;61.79;44.61;74.70;;
81493;Laerm;70900;51.798;10.954;2023-07-31T11:14:21;58.61;44.74;65.31;;
81493;Laerm;70900;51.798;10.954;2023-07-31T11:16:49;58.51;44.20;65.25;;
81493;Laerm;70900;51.798;10.954;2023-07-31T11:19:14;62.07;46.53;70.81;;
81493;Laerm;70900;51.798;10.954;2023-07-31T11:21:40;64.29;54.75;76.70;;
81493;Laerm;70900;51.798;10.954;2023-07-31T11:24:05;59.30;50.45;67.92;;
81493;Laerm;70900;51.798;10.954;2023-07-31T11:26:37;58.65;46.12;70.70;;
81493;Laerm;70900;51.798;10.954;2023-07-31T11:29:02;57.78;46.98;67.87;;
81493;Laerm;70900;51.798;10.954;2023-07-31T11:31:41;61.13;45.79;70.99;;
81493;Laerm;70900;51.798;10.954;2023-07-31T11:34:07;63.65;46.02;78.11;;
81493;Laerm;70900;51.798;10.954;2023-07-31T11:36:32;59.14;45.82;69.73;;
81493;Laerm;70900;51.798;10.954;2023-07-31T11:39:04;60.49;45.14;74.24;;
81493;Laerm;70900;51.798;10.954;2023-07-31T11:41:30;59.00;48.25;66.45;;
81493;Laerm;70900;51.798;10.954;2023-07-31T11:43:59;59.20;48.76;70.88;;
81493;Laerm;70900;51.798;10.954;2023-07-31T11:46:24;57.86;45.49;68.15;;
81493;Laerm;70900;51.798;10.954;2023-07-31T11:48:55;57.95;48.82;64.74;;
81493;Laerm;70900;51.798;10.954;2023-07-31T11:51:24;63.26;50.13;76.21;;
81493;Laerm;70900;51.798;10.954;2023-07-31T11:53:55;58.06;46.99;68.09;;
81493;Laerm;70900;51.798;10.954;2023-07-31T11:56:25;57.35;45.46;68.03;;
81493;Laerm;70900;51.798;10.954;2023-07-31T11:59:00;55.12;46.21;66.28;;
81493;Laerm;70900;51.798;10.954;2023-07-31T12:01:27;59.74;48.20;68.40;;
81493;Laerm;70900;51.798;10.954;2023-07-31T12:03:53;57.67;46.31;67.36;;
81493;Laerm;70900;51.798;10.954;2023-07-31T12:06:18;58.97;47.68;69.04;;
81493;Laerm;70900;51.798;10.954;2023-07-31T12:08:46;58.86;48.65;70.81;;
81493;Laerm;70900;51.798;10.954;2023-07-31T12:11:13;56.99;47.25;65.96;;
81493;Laerm;70900;51.798;10.954;2023-07-31T12:13:42;59.35;49.49;75.85;;
81493;Laerm;70900;51.798;10.954;2023-07-31T12:16:09;59.08;47.04;71.22;;
81493;Laerm;70900;51.798;10.954;2023-07-31T12:18:37;54.82;46.68;63.00;;
81493;Laerm;70900;51.798;10.954;2023-07-31T12:21:04;62.62;46.76;81.96;;
81493;Laerm;70900;51.798;10.954;2023-07-31T12:23:32;60.22;40.53;76.59;;
81493;Laerm;70900;51.798;10.954;2023-07-31T12:28:26;62.69;40.64;74.03;;
81493;Laerm;70900;51.798;10.954;2023-07-31T12:30:51;52.58;39.90;69.43;;
81493;Laerm;70900;51.798;10.954;2023-07-31T12:33:21;55.07;44.02;67.77;;
81493;Laerm;70900;51.798;10.954;2023-07-31T12:35:47;55.85;43.20;70.94;;
81493;Laerm;70900;51.798;10.954;2023-07-31T12:38:13;61.52;48.56;73.66;;
81493;Laerm;70900;51.798;10.954;2023-07-31T12:40:40;58.42;49.21;67.63;;
81493;Laerm;70900;51.798;10.954;2023-07-31T12:43:05;58.38;44.84;68.92;;
81493;Laerm;70900;51.798;10.954;2023-07-31T12:45:31;56.71;44.34;66.97;;
81493;Laerm;70900;51.798;10.954;2023-07-31T12:47:57;59.00;43.73;76.88;;
81493;Laerm;70900;51.798;10.954;2023-07-31T12:50:23;54.47;39.39;66.38;;
81493;Laerm;70900;51.798;10.954;2023-07-31T12:52:48;54.43;42.92;67.66;;
81493;Laerm;70900;51.798;10.954;2023-07-31T12:55:15;49.27;38.35;63.85;;
81493;Laerm;70900;51.798;10.954;2023-07-31T12:57:41;51.55;39.98;66.79;;
81493;Laerm;70900;51.798;10.954;2023-07-31T13:00:11;55.04;46.20;66.43;;
81493;Laerm;70900;51.798;10.954;2023-07-31T13:02:38;56.83;45.83;71.89;;
81493;Laerm;70900;51.798;10.954;2023-07-31T13:05:04;56.16;41.71;67.17;;
81493;Laerm;70900;51.798;10.954;2023-07-31T13:07:30;62.12;43.21;78.65;;
81493;Laerm;70900;51.798;10.954;2023-07-31T13:09:55;60.81;43.16;79.00;;
81493;Laerm;70900;51.798;10.954;2023-07-31T13:12:20;64.16;43.83;82.40;;
81493;Laerm;70900;51.798;10.954;2023-07-31T13:14:46;56.93;45.59;64.35;;
81493;Laerm;70900;51.798;10.954;2023-07-31T13:17:11;51.09;40.79;66.70;;
81493;Laerm;70900;51.798;10.954;2023-07-31T13:19:37;58.25;43.18;76.00;;
81493;Laerm;70900;51.798;10.954;2023-07-31T13:22:03;58.78;47.59;73.98;;
81493;Laerm;70900;51.798;10.954;2023-07-31T13:24:29;53.32;40.62;68.37;;
81493;Laerm;70900;51.798;10.954;2023-07-31T13:26:55;53.91;42.20;66.50;;
81493;Laerm;70900;51.798;10.954;2023-07-31T13:29:22;54.37;38.76;64.84;;
81493;Laerm;70900;51.798;10.954;2023-07-31T13:31:47;57.23;45.87;70.85;;
81493;Laerm;70900;51.798;10.954;2023-07-31T13:34:13;60.91;46.01;77.93;;
81493;Laerm;70900;51.798;10.954;2023-07-31T13:36:38;60.02;43.31;76.89;;